createdAt,value
2022-08-08T00:00:53.878Z,101384.52
2022-08-08T00:03:31.539Z,101382.04
2022-08-08T00:06:41.413Z,101382.20
2022-08-08T00:09:23.683Z,101381.55
2022-08-08T00:12:07.653Z,101380.17
2022-08-08T00:15:01.141Z,101376.29
2022-08-08T00:18:02.509Z,101379.14
2022-08-08T00:20:51.804Z,101372.50
2022-08-08T00:23:42.798Z,101375.34
2022-08-08T00:26:26.201Z,101377.92
2022-08-08T00:29:11.683Z,101375.19
2022-08-08T00:32:29.107Z,101379.29
2022-08-08T00:35:18.763Z,101378.50
2022-08-08T00:38:32.475Z,101376.45
2022-08-08T00:41:54.466Z,101372.30
2022-08-08T00:45:03.070Z,101358.17
2022-08-08T00:48:30.217Z,101372.33
2022-08-08T00:51:48.056Z,101369.59
2022-08-08T00:54:33.652Z,101370.02
2022-08-08T00:57:19.640Z,101368.42
2022-08-08T01:00:06.487Z,101367.85
2022-08-08T01:03:57.246Z,101368.36
2022-08-08T01:06:16.268Z,101364.56
2022-08-08T01:08:58.729Z,101363.63
2022-08-08T01:12:05.053Z,101363.58
2022-08-08T01:14:54.291Z,101360.85
2022-08-08T01:17:52.169Z,101362.11
2022-08-08T01:20:31.157Z,101360.36
2022-08-08T01:24:06.129Z,101363.81
2022-08-08T01:26:49.081Z,101363.65
2022-08-08T01:29:59.191Z,101358.41
2022-08-08T01:33:16.225Z,101357.34
2022-08-08T01:36:10.983Z,101357.95
2022-08-08T01:39:06.453Z,101358.04
2022-08-08T01:41:57.985Z,101351.23
2022-08-08T01:44:30.448Z,101350.05
2022-08-08T01:48:15.003Z,101350.10
2022-08-08T01:50:44.258Z,101355.15
2022-08-08T01:55:17.135Z,101324.45
2022-08-08T01:56:48.466Z,101338.63
2022-08-08T02:00:02.090Z,101353.69
2022-08-08T02:03:57.722Z,101352.45
2022-08-08T02:06:43.353Z,101354.98
2022-08-08T02:10:04.407Z,101364.45
2022-08-08T02:12:50.258Z,101346.56
2022-08-08T02:15:38.849Z,101362.33
2022-08-08T02:18:45.096Z,101367.45
2022-08-08T02:21:54.753Z,101374.68
2022-08-08T02:24:32.210Z,101371.14
2022-08-08T02:27:17.488Z,101378.50
2022-08-08T02:30:24.681Z,101381.75
2022-08-08T02:33:41.445Z,101381.97
2022-08-08T02:36:30.991Z,101381.32
2022-08-08T02:39:42.043Z,101367.75
2022-08-08T02:42:36.009Z,101383.13
2022-08-08T02:45:32.406Z,101384.61
2022-08-08T02:48:40.911Z,101385.39
2022-08-08T02:51:30.597Z,101387.39
2022-08-08T02:54:15.682Z,101387.65
2022-08-08T02:57:21.752Z,101387.45
2022-08-08T03:00:26.396Z,101385.82
2022-08-08T03:03:08.983Z,101383.58
2022-08-08T03:06:24.055Z,101384.62
2022-08-08T03:09:41.791Z,101384.94
2022-08-08T03:13:01.320Z,101370.36
2022-08-08T03:16:05.644Z,101391.60
2022-08-08T03:18:37.590Z,101392.42
2022-08-08T03:21:09.569Z,101390.47
2022-08-08T03:23:59.218Z,101392.31
2022-08-08T03:26:32.690Z,101395.56
2022-08-08T03:29:21.012Z,101387.09
2022-08-08T03:32:14.364Z,101377.23
2022-08-08T03:34:48.521Z,101394.91
2022-08-08T03:38:00.095Z,101393.35
2022-08-08T03:40:10.820Z,101394.91
2022-08-08T03:42:55.510Z,101395.25
2022-08-08T03:46:03.502Z,101397.03
2022-08-08T03:48:21.244Z,101398.59
2022-08-08T03:51:06.719Z,101384.46
2022-08-08T03:53:42.269Z,101400.70
2022-08-08T03:56:32.154Z,101401.64
2022-08-08T03:59:02.034Z,101399.16
2022-08-08T04:02:13.117Z,101402.72
2022-08-08T04:04:30.941Z,101403.14
2022-08-08T04:07:01.551Z,101402.59
2022-08-08T04:09:58.972Z,101403.98
2022-08-08T04:12:20.447Z,101407.11
2022-08-08T04:14:51.665Z,101408.28
2022-08-08T04:17:22.305Z,101407.96
2022-08-08T04:20:09.126Z,101410.05
2022-08-08T04:22:38.404Z,101417.33
2022-08-08T04:25:08.237Z,101418.38
2022-08-08T04:28:03.529Z,101416.75
2022-08-08T04:30:44.323Z,101417.84
2022-08-08T04:33:15.597Z,101415.25
2022-08-08T04:35:50.721Z,101399.56
2022-08-08T04:38:22.184Z,101413.41
2022-08-08T04:40:54.193Z,101417.95
2022-08-08T04:43:32.035Z,101420.69
2022-08-08T04:46:14.691Z,101421.83
2022-08-08T04:51:48.480Z,101420.00
2022-08-08T04:54:39.834Z,101417.98
2022-08-08T04:57:06.521Z,101413.26
2022-08-08T04:59:42.063Z,101415.05
2022-08-08T05:02:13.638Z,101416.00
2022-08-08T05:04:44.579Z,101423.08
2022-08-08T05:07:14.855Z,101424.38
2022-08-08T05:09:44.223Z,101424.83
2022-08-08T05:12:20.486Z,101423.44
2022-08-08T05:14:53.109Z,101422.98
2022-08-08T05:17:26.369Z,101422.71
2022-08-08T05:20:12.631Z,101423.31
2022-08-08T05:22:43.305Z,101425.20
2022-08-08T05:25:11.947Z,101432.45
2022-08-08T05:27:41.315Z,101431.50
2022-08-08T05:30:13.562Z,101428.84
2022-08-08T05:32:50.185Z,101425.86
2022-08-08T05:35:23.530Z,101425.80
2022-08-08T05:38:32.291Z,101431.02
2022-08-08T05:41:04.467Z,101436.27
2022-08-08T05:44:02.357Z,101434.89
2022-08-08T05:46:28.975Z,101436.68
2022-08-08T05:49:07.538Z,101431.33
2022-08-08T05:51:49.298Z,101436.13
2022-08-08T05:54:27.313Z,101432.82
2022-08-08T05:57:16.065Z,101436.77
2022-08-08T06:00:22.493Z,101439.50
2022-08-08T06:03:17.413Z,101442.53
2022-08-08T06:06:09.785Z,101428.92
2022-08-08T06:08:55.354Z,101440.85
2022-08-08T06:11:32.911Z,101443.07
2022-08-08T06:14:17.977Z,101445.33
2022-08-08T06:16:47.497Z,101448.18
2022-08-08T06:19:33.189Z,101443.02
2022-08-08T06:22:32.232Z,101443.38
2022-08-08T06:24:53.528Z,101443.17
2022-08-08T06:27:36.301Z,101444.50
2022-08-08T06:30:19.823Z,101445.51
2022-08-08T06:33:00.928Z,101447.68
2022-08-08T06:36:07.485Z,101453.40
2022-08-08T06:38:27.591Z,101451.64
2022-08-08T06:41:05.917Z,101454.70
2022-08-08T06:43:40.957Z,101453.33
2022-08-08T06:46:23.963Z,101451.05
2022-08-08T06:48:53.682Z,101454.49
2022-08-08T06:51:23.858Z,101452.36
2022-08-08T06:54:01.500Z,101452.52
2022-08-08T06:56:34.731Z,101454.67
2022-08-08T06:59:09.915Z,101449.55
2022-08-08T07:02:26.573Z,101449.42
2022-08-08T07:04:56.082Z,101449.42
2022-08-08T07:07:57.143Z,101437.86
2022-08-08T07:10:33.308Z,101448.61
2022-08-08T07:13:10.148Z,101450.18
2022-08-08T07:16:04.793Z,101448.70
2022-08-08T07:18:55.852Z,101450.35
2022-08-08T07:21:31.278Z,101451.33
2022-08-08T07:24:14.360Z,101455.42
2022-08-08T07:26:53.166Z,101457.17
2022-08-08T07:30:01.000Z,101452.94
2022-08-08T07:32:15.836Z,101458.55
2022-08-08T07:35:00.958Z,101457.09
2022-08-08T07:37:49.684Z,101455.55
2022-08-08T07:40:40.167Z,101458.13
2022-08-08T07:43:12.446Z,101462.08
2022-08-08T07:46:05.827Z,101462.58
2022-08-08T07:48:35.798Z,101464.05
2022-08-08T07:51:04.855Z,101466.35
2022-08-08T07:54:02.873Z,101468.64
2022-08-08T07:56:52.853Z,101464.11
2022-08-08T07:59:25.982Z,101462.02
2022-08-08T08:02:34.862Z,101462.59
2022-08-08T08:04:53.225Z,101465.27
2022-08-08T08:07:32.265Z,101461.95
2022-08-08T08:10:12.677Z,101467.84
2022-08-08T08:12:54.360Z,101464.17
2022-08-08T08:15:26.317Z,101462.50
2022-08-08T08:18:04.817Z,101462.56
2022-08-08T08:20:35.843Z,101467.92
2022-08-08T08:23:06.142Z,101458.14
2022-08-08T08:25:42.772Z,101465.65
2022-08-08T08:28:17.074Z,101467.98
2022-08-08T08:30:50.253Z,101465.45
2022-08-08T08:33:18.477Z,101466.33
2022-08-08T08:36:18.765Z,101454.84
2022-08-08T08:38:49.692Z,101470.84
2022-08-08T08:41:23.852Z,101464.77
2022-08-08T08:44:14.042Z,101450.79
2022-08-08T08:46:45.634Z,101454.80
2022-08-08T08:49:19.761Z,101457.52
2022-08-08T08:51:52.800Z,101461.00
2022-08-08T08:54:25.346Z,101464.81
2022-08-08T08:56:57.309Z,101460.39
2022-08-08T08:59:58.860Z,101461.54
2022-08-08T09:02:24.653Z,101459.74
2022-08-08T09:04:59.726Z,101443.63
2022-08-08T09:07:39.039Z,101459.52
2022-08-08T09:10:19.993Z,101459.17
2022-08-08T09:12:51.567Z,101458.41
2022-08-08T09:15:37.144Z,101456.00
2022-08-08T09:18:09.717Z,101455.23
2022-08-08T09:21:58.257Z,101454.80
2022-08-08T09:23:40.890Z,101438.45
2022-08-08T09:26:32.728Z,101450.55
2022-08-08T09:29:09.608Z,101453.78
2022-08-08T09:31:55.952Z,101451.49
2022-08-08T09:34:35.130Z,101452.64
2022-08-08T09:37:57.319Z,101453.80
2022-08-08T09:40:10.655Z,101446.37
2022-08-08T09:42:51.103Z,101442.41
2022-08-08T09:45:55.149Z,101439.46
2022-08-08T09:48:20.997Z,101428.98
2022-08-08T09:50:55.855Z,101438.00
2022-08-08T09:53:56.614Z,101442.39
2022-08-08T09:56:35.197Z,101425.54
2022-08-08T09:59:40.323Z,101441.23
2022-08-08T10:02:12.616Z,101439.98
2022-08-08T10:04:47.787Z,101435.00
2022-08-08T10:07:26.982Z,101436.95
2022-08-08T10:10:06.774Z,101435.20
2022-08-08T10:12:53.051Z,101424.52
2022-08-08T10:15:25.106Z,101434.20
2022-08-08T10:18:05.361Z,101434.17
2022-08-08T10:20:57.945Z,101428.98
2022-08-08T10:23:58.047Z,101426.55
2022-08-08T10:26:56.819Z,101423.04
2022-08-08T10:29:58.566Z,101423.35
2022-08-08T10:32:34.330Z,101423.33
2022-08-08T10:36:06.796Z,101425.87
2022-08-08T10:38:08.634Z,101424.33
2022-08-08T10:40:38.956Z,101422.87
2022-08-08T10:43:09.977Z,101421.80
2022-08-08T10:45:56.524Z,101418.30
2022-08-08T10:48:57.453Z,101409.33
2022-08-08T10:51:31.651Z,101415.82
2022-08-08T10:54:24.882Z,101414.63
2022-08-08T10:57:03.827Z,101415.85
2022-08-08T10:59:39.720Z,101410.97
2022-08-08T11:02:09.640Z,101408.64
2022-08-08T11:04:54.008Z,101407.73
2022-08-08T11:08:30.673Z,101405.91
2022-08-08T11:10:29.402Z,101406.35
2022-08-08T11:13:25.484Z,101394.37
2022-08-08T11:16:00.289Z,101405.73
2022-08-08T11:18:30.682Z,101400.48
2022-08-08T11:21:10.113Z,101383.36
2022-08-08T11:23:42.144Z,101396.95
2022-08-08T11:26:19.108Z,101392.28
2022-08-08T11:28:50.265Z,101389.89
2022-08-08T11:31:20.965Z,101389.52
2022-08-08T11:34:01.929Z,101387.89
2022-08-08T11:36:36.544Z,101387.97
2022-08-08T11:39:12.758Z,101387.65
2022-08-08T11:41:43.345Z,101391.62
2022-08-08T11:44:15.031Z,101386.95
2022-08-08T11:46:53.827Z,101383.23
2022-08-08T11:49:23.158Z,101384.36
2022-08-08T11:51:53.837Z,101387.36
2022-08-08T11:54:38.370Z,101383.91
2022-08-08T11:57:27.362Z,101385.05
2022-08-08T12:00:09.906Z,101385.55
2022-08-08T12:02:51.147Z,101366.68
2022-08-08T12:05:33.752Z,101382.36
2022-08-08T12:08:04.396Z,101380.13
2022-08-08T12:10:33.436Z,101377.50
2022-08-08T12:13:06.798Z,101375.70
2022-08-08T12:15:46.898Z,101379.42
2022-08-08T12:18:21.328Z,101377.20
2022-08-08T12:20:53.374Z,101375.96
2022-08-08T12:23:43.002Z,101375.20
2022-08-08T12:26:28.147Z,101377.02
2022-08-08T12:29:40.693Z,101379.02
2022-08-08T12:32:17.306Z,101377.98
2022-08-08T12:35:04.866Z,101376.19
2022-08-08T12:38:01.613Z,101374.30
2022-08-08T12:40:55.975Z,101373.85
2022-08-08T12:43:46.498Z,101367.92
2022-08-08T12:46:26.083Z,101369.54
2022-08-08T12:49:22.131Z,101368.92
2022-08-08T12:51:49.899Z,101366.66
2022-08-08T12:54:36.027Z,101361.41
2022-08-08T12:57:16.945Z,101361.40
2022-08-08T13:00:04.971Z,101354.92
2022-08-08T13:02:41.897Z,101356.14
2022-08-08T13:05:26.752Z,101351.06
2022-08-08T13:08:19.381Z,101350.30
2022-08-08T13:10:56.229Z,101347.61
2022-08-08T13:13:43.441Z,101350.14
2022-08-08T13:16:25.679Z,101351.18
2022-08-08T13:19:09.191Z,101336.63
2022-08-08T13:21:55.336Z,101348.66
2022-08-08T13:24:40.865Z,101345.59
2022-08-08T13:27:21.008Z,101356.04
2022-08-08T13:29:54.827Z,101353.11
2022-08-08T13:32:25.581Z,101343.83
2022-08-08T13:34:57.416Z,101357.61
2022-08-08T13:37:27.888Z,101353.86
2022-08-08T13:40:27.080Z,101349.84
2022-08-08T13:42:57.714Z,101349.67
2022-08-08T13:45:27.116Z,101351.83
2022-08-08T13:48:00.130Z,101354.88
2022-08-08T13:50:39.470Z,101350.66
2022-08-08T13:53:24.431Z,101348.52
2022-08-08T13:56:02.447Z,101348.45
2022-08-08T13:58:30.752Z,101345.23
2022-08-08T14:00:58.876Z,101342.69
2022-08-08T14:03:47.208Z,101340.86
2022-08-08T14:06:32.125Z,101340.67
2022-08-08T14:09:24.339Z,101340.37
2022-08-08T14:11:50.782Z,101339.70
2022-08-08T14:14:20.972Z,101328.48
2022-08-08T14:16:55.269Z,101339.98
2022-08-08T14:19:58.311Z,101338.39
2022-08-08T14:22:27.402Z,101343.85
2022-08-08T14:25:00.676Z,101343.80
2022-08-08T14:27:34.145Z,101342.88
2022-08-08T14:30:16.913Z,101342.84
2022-08-08T14:32:52.769Z,101339.13
2022-08-08T14:35:35.655Z,101340.27
2022-08-08T14:38:33.499Z,101339.34
2022-08-08T14:40:59.612Z,101321.65
2022-08-08T14:44:01.918Z,101339.55
2022-08-08T14:46:17.869Z,101339.58
2022-08-08T14:48:52.515Z,101341.36
2022-08-08T14:51:31.137Z,101327.05
2022-08-08T14:54:16.144Z,101339.60
2022-08-08T14:56:57.981Z,101342.15
2022-08-08T14:59:44.244Z,101327.11
2022-08-08T15:02:22.226Z,101337.02
2022-08-08T15:04:54.266Z,101332.45
2022-08-08T15:07:24.103Z,101336.12
2022-08-08T15:09:53.287Z,101334.27
2022-08-08T15:12:34.842Z,101330.23
2022-08-08T15:15:06.802Z,101329.89
2022-08-08T15:17:38.220Z,101325.00
2022-08-08T15:20:14.350Z,101327.23
2022-08-08T15:22:44.608Z,101322.14
2022-08-08T15:25:29.353Z,101322.23
2022-08-08T15:28:32.612Z,101322.45
2022-08-08T15:30:50.894Z,101320.85
2022-08-08T15:33:35.207Z,101319.80
2022-08-08T15:36:06.953Z,101319.65
2022-08-08T15:38:35.134Z,101317.94
2022-08-08T15:41:08.845Z,101321.17
2022-08-08T15:43:38.052Z,101326.44
2022-08-08T15:46:08.591Z,101324.13
2022-08-08T15:48:38.612Z,101322.35
2022-08-08T15:51:08.918Z,101325.66
2022-08-08T15:53:48.991Z,101324.63
2022-08-08T15:56:20.037Z,101326.91
2022-08-08T15:58:49.330Z,101330.25
2022-08-08T16:01:21.045Z,101330.41
2022-08-08T16:03:51.653Z,101331.08
2022-08-08T16:06:27.610Z,101328.23
2022-08-08T16:12:59.957Z,101326.89
2022-08-08T16:13:04.840Z,101330.83
2022-08-08T16:14:37.410Z,101328.73
2022-08-08T16:17:06.147Z,101325.23
2022-08-08T16:19:59.526Z,101331.23
2022-08-08T16:22:28.656Z,101332.76
2022-08-08T16:25:05.602Z,101334.55
2022-08-08T16:27:36.930Z,101330.30
2022-08-08T16:30:16.263Z,101331.95
2022-08-08T16:32:48.537Z,101333.23
2022-08-08T16:35:18.751Z,101337.56
2022-08-08T16:37:51.337Z,101330.34
2022-08-08T16:40:19.832Z,101319.84
2022-08-08T16:42:52.011Z,101330.55
2022-08-08T16:46:37.078Z,101332.26
2022-08-08T16:48:13.452Z,101332.77
2022-08-08T16:50:41.961Z,101333.55
2022-08-08T16:55:01.411Z,101339.20
2022-08-08T16:56:02.931Z,101338.29
2022-08-08T16:58:36.009Z,101337.73
2022-08-08T17:01:14.757Z,101338.35
2022-08-08T17:04:01.339Z,101341.11
2022-08-08T17:06:37.124Z,101343.80
2022-08-08T17:09:14.698Z,101343.04
2022-08-08T17:11:48.471Z,101346.52
2022-08-08T17:14:34.083Z,101347.52
2022-08-08T17:17:04.715Z,101355.84
2022-08-08T17:19:37.360Z,101354.05
2022-08-08T17:22:10.039Z,101357.08
2022-08-08T17:24:37.995Z,101347.95
2022-08-08T17:27:08.207Z,101364.32
2022-08-08T17:29:43.792Z,101362.83
2022-08-08T17:32:28.881Z,101366.27
2022-08-08T17:35:53.340Z,101366.50
2022-08-08T17:37:54.110Z,101367.96
2022-08-08T17:40:32.864Z,101368.73
2022-08-08T17:43:01.055Z,101371.45
2022-08-08T17:45:32.814Z,101378.36
2022-08-08T17:48:04.769Z,101380.17
2022-08-08T17:50:33.134Z,101381.66
2022-08-08T17:53:03.846Z,101382.88
2022-08-08T17:56:05.366Z,101388.07
2022-08-08T17:58:27.721Z,101387.56
2022-08-08T18:00:57.370Z,101392.96
2022-08-08T18:03:27.987Z,101394.02
2022-08-08T18:05:55.958Z,101396.30
2022-08-08T18:08:41.669Z,101397.33
2022-08-08T18:11:16.212Z,101387.51
2022-08-08T18:13:46.000Z,101401.34
2022-08-08T18:16:23.332Z,101405.48
2022-08-08T18:18:57.565Z,101410.05
2022-08-08T18:21:59.333Z,101409.98
2022-08-08T18:24:21.564Z,101415.84
2022-08-08T18:26:54.985Z,101420.98
2022-08-08T18:29:30.065Z,101425.70
2022-08-08T18:32:06.626Z,101429.43
2022-08-08T18:34:37.780Z,101431.86
2022-08-08T18:37:06.565Z,101435.67
2022-08-08T18:39:42.028Z,101441.38
2022-08-08T18:42:16.653Z,101435.63
2022-08-08T18:44:55.210Z,101448.42
2022-08-08T18:47:26.294Z,101449.73
2022-08-08T18:49:58.734Z,101449.33
2022-08-08T18:52:29.857Z,101449.43
2022-08-08T18:55:10.107Z,101454.41
2022-08-08T18:57:45.427Z,101456.06
2022-08-08T19:00:20.123Z,101455.38
2022-08-08T19:02:56.388Z,101454.70
2022-08-08T19:05:33.976Z,101454.95
2022-08-08T19:08:23.921Z,101445.88
2022-08-08T19:10:55.603Z,101458.08
2022-08-08T19:13:38.404Z,101459.25
2022-08-08T19:16:19.531Z,101461.17
2022-08-08T19:19:00.399Z,101463.11
2022-08-08T19:21:49.276Z,101467.61
2022-08-08T19:24:41.733Z,101453.73
2022-08-08T19:27:08.005Z,101465.62
2022-08-08T19:29:42.423Z,101468.67
2022-08-08T19:32:19.550Z,101471.90
2022-08-08T19:34:51.881Z,101472.14
2022-08-08T19:37:43.436Z,101465.73
2022-08-08T19:40:14.674Z,101472.27
2022-08-08T19:42:58.648Z,101476.02
2022-08-08T19:45:57.351Z,101477.53
2022-08-08T19:48:30.750Z,101479.42
2022-08-08T19:51:01.138Z,101481.06
2022-08-08T19:53:53.359Z,101484.30
2022-08-08T19:56:25.984Z,101472.09
2022-08-08T19:59:11.720Z,101490.15
2022-08-08T20:02:02.569Z,101495.33
2022-08-08T20:04:30.421Z,101497.05
2022-08-08T20:07:05.597Z,101500.20
2022-08-08T20:09:57.065Z,101502.38
2022-08-08T20:12:32.600Z,101501.06
2022-08-08T20:15:16.474Z,101506.59
2022-08-08T20:17:47.387Z,101505.40
2022-08-08T20:20:19.040Z,101504.64
2022-08-08T20:22:54.207Z,101506.36
2022-08-08T20:25:29.801Z,101502.30
2022-08-08T20:28:05.746Z,101504.34
2022-08-08T20:30:53.393Z,101502.44
2022-08-08T20:35:58.707Z,101504.30
2022-08-08T20:38:34.408Z,101503.77
2022-08-08T20:41:05.730Z,101503.34
2022-08-08T20:43:49.197Z,101505.23
2022-08-08T20:46:36.026Z,101504.92
2022-08-08T20:49:07.880Z,101502.05
2022-08-08T20:51:39.818Z,101502.65
2022-08-08T20:54:14.139Z,101503.29
2022-08-08T20:57:04.783Z,101504.14
2022-08-08T20:59:41.709Z,101505.09
2022-08-08T21:02:17.718Z,101504.45
2022-08-08T21:05:01.006Z,101505.23
2022-08-08T21:08:00.826Z,101503.74
2022-08-08T21:10:28.284Z,101499.09
2022-08-08T21:12:58.129Z,101498.15
2022-08-08T21:16:05.809Z,101497.88
2022-08-08T21:18:14.453Z,101497.08
2022-08-08T21:20:42.510Z,101494.70
2022-08-08T21:23:18.263Z,101496.77
2022-08-08T21:25:48.819Z,101501.35
2022-08-08T21:28:19.341Z,101503.54
2022-08-08T21:31:21.740Z,101508.54
2022-08-08T21:33:49.809Z,101513.33
2022-08-08T21:36:20.961Z,101516.31
2022-08-08T21:38:57.675Z,101501.64
2022-08-08T21:41:28.877Z,101512.47
2022-08-08T21:44:11.473Z,101509.14
2022-08-08T21:48:01.155Z,101505.16
2022-08-08T21:49:30.779Z,101504.77
2022-08-08T21:54:31.445Z,101505.84
2022-08-08T21:55:02.294Z,101505.02
2022-08-08T21:57:41.844Z,101502.84
2022-08-08T22:00:14.229Z,101502.92
2022-08-08T22:02:44.751Z,101497.84
2022-08-08T22:05:14.690Z,101501.14
2022-08-08T22:07:48.316Z,101502.08
2022-08-08T22:10:32.797Z,101503.52
2022-08-08T22:13:17.389Z,101504.24
2022-08-08T22:15:58.668Z,101503.38
2022-08-08T22:18:33.530Z,101505.27
2022-08-08T22:21:13.740Z,101508.69
2022-08-08T22:23:49.443Z,101504.65
2022-08-08T22:26:29.391Z,101508.04
2022-08-08T22:29:04.645Z,101498.97
2022-08-08T22:31:44.156Z,101512.98
2022-08-08T22:34:32.374Z,101513.38
2022-08-08T22:37:03.727Z,101515.41
2022-08-08T22:39:45.748Z,101513.61
2022-08-08T22:42:27.098Z,101512.51
2022-08-08T22:44:57.872Z,101515.96
2022-08-08T22:47:37.864Z,101514.17
2022-08-08T22:50:25.051Z,101500.72
2022-08-08T22:54:30.867Z,101516.70
2022-08-08T22:55:59.266Z,101516.66
2022-08-08T22:58:34.351Z,101519.90
2022-08-08T23:02:00.611Z,101520.52
2022-08-08T23:03:59.808Z,101526.11
2022-08-08T23:06:27.997Z,101526.40
2022-08-08T23:08:59.911Z,101522.52
2022-08-08T23:11:57.962Z,101520.08
2022-08-08T23:14:20.536Z,101522.50
2022-08-08T23:16:54.491Z,101525.16
2022-08-08T23:19:32.535Z,101527.58
2022-08-08T23:22:06.889Z,101527.90
2022-08-08T23:24:41.522Z,101529.05
2022-08-08T23:27:17.198Z,101528.28
2022-08-08T23:30:04.714Z,101525.66
2022-08-08T23:32:33.333Z,101521.83
2022-08-08T23:35:02.469Z,101520.41
2022-08-08T23:37:54.032Z,101517.95
2022-08-08T23:40:24.578Z,101518.21
2022-08-08T23:42:52.995Z,101519.70
2022-08-08T23:49:01.954Z,101520.15
2022-08-08T23:49:05.462Z,101524.20
2022-08-08T23:51:06.311Z,101525.34
2022-08-08T23:54:05.663Z,101527.41
2022-08-08T23:56:32.528Z,101529.46
2022-08-08T23:59:02.700Z,101531.30
